sensor_id;sensor_type;location;lat;lon;timestamp;pressure;altitude;pressure_sealevel;temperature;humidity
51876;BME280;34054;52.100;5.116;2022-09-09T00:00:15;100542.56;;;16.80;86.53
51876;BME280;34054;52.100;5.116;2022-09-09T00:00:54;100551.63;;;16.67;86.61
51876;BME280;34054;52.100;5.116;2022-09-09T00:01:37;100537.84;;;16.58;86.83
51876;BME280;34054;52.100;5.116;2022-09-09T00:02:19;100539.25;;;16.56;86.98
51876;BME280;34054;52.100;5.116;2022-09-09T00:02:59;100545.94;;;16.63;87.06
51876;BME280;34054;52.100;5.116;2022-09-09T00:03:42;100535.09;;;16.58;86.97
51876;BME280;34054;52.100;5.116;2022-09-09T00:04:26;100541.97;;;16.70;87.17
51876;BME280;34054;52.100;5.116;2022-09-09T00:05:04;100546.25;;;16.76;87.07
51876;BME280;34054;52.100;5.116;2022-09-09T00:05:54;100537.72;;;16.77;86.98
51876;BME280;34054;52.100;5.116;2022-09-09T00:06:42;100540.66;;;16.81;86.55
51876;BME280;34054;52.100;5.116;2022-09-09T00:07:21;100535.38;;;16.71;86.80
51876;BME280;34054;52.100;5.116;2022-09-09T00:08:02;100537.72;;;16.77;86.75
51876;BME280;34054;52.100;5.116;2022-09-09T00:08:42;100507.25;;;16.65;86.82
51876;BME280;34054;52.100;5.116;2022-09-09T00:09:23;100538.63;;;16.87;86.37
51876;BME280;34054;52.100;5.116;2022-09-09T00:10:04;100541.56;;;16.90;86.22
51876;BME280;34054;52.100;5.116;2022-09-09T00:10:54;100519.03;;;16.79;86.14
51876;BME280;34054;52.100;5.116;2022-09-09T00:11:40;100526.66;;;16.69;86.36
51876;BME280;34054;52.100;5.116;2022-09-09T00:12:19;100538.44;;;16.69;86.82
51876;BME280;34054;52.100;5.116;2022-09-09T00:13:03;100548.38;;;16.79;86.54
51876;BME280;34054;52.100;5.116;2022-09-09T00:13:46;100538.22;;;16.79;86.50
51876;BME280;34054;52.100;5.116;2022-09-09T00:14:31;100537.72;;;16.91;86.40
51876;BME280;34054;52.100;5.116;2022-09-09T00:15:13;100528.88;;;16.94;86.25
51876;BME280;34054;52.100;5.116;2022-09-09T00:15:57;100535.59;;;17.02;86.03
51876;BME280;34054;52.100;5.116;2022-09-09T00:16:36;100539.44;;;17.01;85.67
51876;BME280;34054;52.100;5.116;2022-09-09T00:17:18;100534.47;;;16.75;86.15
51876;BME280;34054;52.100;5.116;2022-09-09T00:18:10;100533.75;;;16.70;86.73
51876;BME280;34054;52.100;5.116;2022-09-09T00:18:56;100495.59;;;16.31;86.98
51876;BME280;34054;52.100;5.116;2022-09-09T00:19:43;100533.66;;;16.61;87.30
51876;BME280;34054;52.100;5.116;2022-09-09T00:20:28;100533.03;;;16.64;87.19
51876;BME280;34054;52.100;5.116;2022-09-09T00:21:07;100535.78;;;16.64;87.71
51876;BME280;34054;52.100;5.116;2022-09-09T00:21:50;100519.84;;;16.66;87.99
51876;BME280;34054;52.100;5.116;2022-09-09T00:22:30;100534.16;;;16.77;87.71
51876;BME280;34054;52.100;5.116;2022-09-09T00:23:11;100532.50;;;16.90;87.23
51876;BME280;34054;52.100;5.116;2022-09-09T00:23:49;100532.63;;;16.85;86.97
51876;BME280;34054;52.100;5.116;2022-09-09T00:24:27;100532.50;;;16.90;87.05
51876;BME280;34054;52.100;5.116;2022-09-09T00:25:11;100529.06;;;16.98;86.86
51876;BME280;34054;52.100;5.116;2022-09-09T00:25:54;100529.25;;;17.02;86.71
51876;BME280;34054;52.100;5.116;2022-09-09T00:26:36;100531.22;;;17.01;86.37
51876;BME280;34054;52.100;5.116;2022-09-09T00:27:17;100529.97;;;17.07;86.23
51876;BME280;34054;52.100;5.116;2022-09-09T00:27:54;100541.06;;;17.02;86.15
51876;BME280;34054;52.100;5.116;2022-09-09T00:28:28;100543.09;;;16.97;86.18
51876;BME280;34054;52.100;5.116;2022-09-09T00:29:14;100529.69;;;16.81;86.49
51876;BME280;34054;52.100;5.116;2022-09-09T00:30:00;100537.00;;;16.86;86.77
51876;BME280;34054;52.100;5.116;2022-09-09T00:30:45;100529.09;;;16.84;86.86
51876;BME280;34054;52.100;5.116;2022-09-09T00:31:23;100532.94;;;16.83;86.86
51876;BME280;34054;52.100;5.116;2022-09-09T00:32:08;100505.03;;;16.67;86.65
51876;BME280;34054;52.100;5.116;2022-09-09T00:32:44;100533.34;;;16.62;87.05
51876;BME280;34054;52.100;5.116;2022-09-09T00:33:18;100534.28;;;16.58;87.71
51876;BME280;34054;52.100;5.116;2022-09-09T00:33:55;100497.44;;;16.36;87.93
51876;BME280;34054;52.100;5.116;2022-09-09T00:34:33;100534.66;;;16.65;88.16
51876;BME280;34054;52.100;5.116;2022-09-09T00:35:16;100528.66;;;16.77;88.05
51876;BME280;34054;52.100;5.116;2022-09-09T00:35:53;100510.19;;;16.69;87.47
51876;BME280;34054;52.100;5.116;2022-09-09T00:36:27;100527.88;;;16.76;87.47
51876;BME280;34054;52.100;5.116;2022-09-09T00:37:03;100525.91;;;16.77;87.41
51876;BME280;34054;52.100;5.116;2022-09-09T00:37:35;100522.78;;;16.70;87.45
51876;BME280;34054;52.100;5.116;2022-09-09T00:38:12;100530.59;;;16.76;87.62
51876;BME280;34054;52.100;5.116;2022-09-09T00:38:49;100528.56;;;16.82;87.28
51876;BME280;34054;52.100;5.116;2022-09-09T00:39:31;100522.06;;;16.78;87.18
51876;BME280;34054;52.100;5.116;2022-09-09T00:40:18;100485.56;;;16.41;87.15
51876;BME280;34054;52.100;5.116;2022-09-09T00:41:02;100527.47;;;16.41;88.29
51876;BME280;34054;52.100;5.116;2022-09-09T00:41:52;100524.13;;;16.44;88.59
51876;BME280;34054;52.100;5.116;2022-09-09T00:42:41;100529.63;;;16.44;88.34
51876;BME280;34054;52.100;5.116;2022-09-09T00:43:27;100527.88;;;16.48;88.73
51876;BME280;34054;52.100;5.116;2022-09-09T00:44:11;100532.03;;;16.60;88.53
51876;BME280;34054;52.100;5.116;2022-09-09T00:44:55;100527.56;;;16.36;88.59
51876;BME280;34054;52.100;5.116;2022-09-09T00:45:55;100526.66;;;16.27;89.26
51876;BME280;34054;52.100;5.116;2022-09-09T00:47:12;100537.91;;;16.25;89.86
51876;BME280;34054;52.100;5.116;2022-09-09T00:48:03;100537.44;;;16.37;89.50
51876;BME280;34054;52.100;5.116;2022-09-09T00:48:50;100536.19;;;16.29;89.48
51876;BME280;34054;52.100;5.116;2022-09-09T00:49:39;100536.59;;;16.23;89.51
51876;BME280;34054;52.100;5.116;2022-09-09T00:50:35;100440.16;;;15.46;90.00
51876;BME280;34054;52.100;5.116;2022-09-09T00:51:26;100540.03;;;16.14;90.36
51876;BME280;34054;52.100;5.116;2022-09-09T00:52:16;100530.66;;;16.01;90.33
51876;BME280;34054;52.100;5.116;2022-09-09T00:53:05;100528.84;;;16.11;90.48
51876;BME280;34054;52.100;5.116;2022-09-09T00:54:06;100533.53;;;16.10;90.36
51876;BME280;34054;52.100;5.116;2022-09-09T00:54:57;100536.75;;;16.12;90.06
51876;BME280;34054;52.100;5.116;2022-09-09T00:55:42;100530.03;;;15.91;90.31
51876;BME280;34054;52.100;5.116;2022-09-09T00:56:22;100535.13;;;15.78;90.89
51876;BME280;34054;52.100;5.116;2022-09-09T00:57:09;100510.38;;;15.69;90.97
51876;BME280;34054;52.100;5.116;2022-09-09T00:57:55;100533.28;;;15.93;90.96
51876;BME280;34054;52.100;5.116;2022-09-09T00:58:27;100537.94;;;15.92;90.58
51876;BME280;34054;52.100;5.116;2022-09-09T00:59:03;100531.75;;;15.87;90.75
51876;BME280;34054;52.100;5.116;2022-09-09T00:59:51;100536.84;;;15.93;90.60
51876;BME280;34054;52.100;5.116;2022-09-09T01:00:29;100533.13;;;16.03;90.57
51876;BME280;34054;52.100;5.116;2022-09-09T01:01:10;100533.13;;;16.03;90.19
51876;BME280;34054;52.100;5.116;2022-09-09T01:01:44;100530.78;;;16.10;89.93
51876;BME280;34054;52.100;5.116;2022-09-09T01:02:27;100533.44;;;16.15;89.59
51876;BME280;34054;52.100;5.116;2022-09-09T01:03:12;100530.59;;;16.07;89.47
51876;BME280;34054;52.100;5.116;2022-09-09T01:03:56;100484.31;;;15.72;90.02
51876;BME280;34054;52.100;5.116;2022-09-09T01:04:34;100527.72;;;15.98;89.88
51876;BME280;34054;52.100;5.116;2022-09-09T01:05:13;100523.56;;;16.00;90.03
51876;BME280;34054;52.100;5.116;2022-09-09T01:06:00;100527.16;;;15.82;90.06
51876;BME280;34054;52.100;5.116;2022-09-09T01:06:36;100521.00;;;15.71;90.73
51876;BME280;34054;52.100;5.116;2022-09-09T01:07:13;100508.78;;;15.49;91.43
51876;BME280;34054;52.100;5.116;2022-09-09T01:07:49;100520.97;;;15.57;91.70
51876;BME280;34054;52.100;5.116;2022-09-09T01:08:35;100516.38;;;15.52;91.99
51876;BME280;34054;52.100;5.116;2022-09-09T01:09:20;100525.78;;;15.46;92.02
51876;BME280;34054;52.100;5.116;2022-09-09T01:09:59;100510.03;;;15.38;92.50
51876;BME280;34054;52.100;5.116;2022-09-09T01:10:41;100505.91;;;15.41;92.53
51876;BME280;34054;52.100;5.116;2022-09-09T01:11:22;100520.16;;;15.57;92.31
51876;BME280;34054;52.100;5.116;2022-09-09T01:12:01;100521.63;;;15.68;92.26
51876;BME280;34054;52.100;5.116;2022-09-09T01:12:42;100523.06;;;15.79;91.78
51876;BME280;34054;52.100;5.116;2022-09-09T01:13:19;100523.53;;;15.87;91.41
51876;BME280;34054;52.100;5.116;2022-09-09T01:13:58;100530.03;;;15.91;90.96
51876;BME280;34054;52.100;5.116;2022-09-09T01:14:45;100517.28;;;16.00;90.76
51876;BME280;34054;52.100;5.116;2022-09-09T01:15:22;100525.31;;;16.10;90.50
51876;BME280;34054;52.100;5.116;2022-09-09T01:15:58;100519.72;;;16.01;91.18
51876;BME280;34054;52.100;5.116;2022-09-09T01:16:33;100516.00;;;16.11;91.11
51876;BME280;34054;52.100;5.116;2022-09-09T01:17:11;100513.72;;;16.13;89.96
51876;BME280;34054;52.100;5.116;2022-09-09T01:17:53;100521.25;;;16.22;89.96
51876;BME280;34054;52.100;5.116;2022-09-09T01:18:35;100487.88;;;16.06;89.74
51876;BME280;34054;52.100;5.116;2022-09-09T01:19:15;100524.00;;;16.36;89.01
51876;BME280;34054;52.100;5.116;2022-09-09T01:20:01;100523.81;;;16.32;88.46
51876;BME280;34054;52.100;5.116;2022-09-09T01:20:43;100520.34;;;16.26;88.60
51876;BME280;34054;52.100;5.116;2022-09-09T01:21:27;100515.69;;;16.27;88.18
51876;BME280;34054;52.100;5.116;2022-09-09T01:22:15;100514.59;;;16.28;88.25
51876;BME280;34054;52.100;5.116;2022-09-09T01:23:05;100524.44;;;16.29;88.29
51876;BME280;34054;52.100;5.116;2022-09-09T01:24:14;100528.25;;;16.14;88.39
51876;BME280;34054;52.100;5.116;2022-09-09T01:26:15;100489.41;;;15.79;89.30
51876;BME280;34054;52.100;5.116;2022-09-09T01:26:51;100517.66;;;15.93;89.46
51876;BME280;34054;52.100;5.116;2022-09-09T01:27:26;100516.16;;;16.01;89.34
51876;BME280;34054;52.100;5.116;2022-09-09T01:28:01;100514.94;;;16.07;89.31
51876;BME280;34054;52.100;5.116;2022-09-09T01:28:40;100522.41;;;16.21;89.05
51876;BME280;34054;52.100;5.116;2022-09-09T01:29:17;100528.50;;;16.31;88.72
51876;BME280;34054;52.100;5.116;2022-09-09T01:29:51;100525.63;;;16.37;88.69
51876;BME280;34054;52.100;5.116;2022-09-09T01:30:23;100525.94;;;16.35;88.23
51876;BME280;34054;52.100;5.116;2022-09-09T01:30:56;100532.53;;;16.34;88.22
51876;BME280;34054;52.100;5.116;2022-09-09T01:31:32;100523.09;;;16.40;88.14
51876;BME280;34054;52.100;5.116;2022-09-09T01:32:37;100527.06;;;16.48;87.78
51876;BME280;34054;52.100;5.116;2022-09-09T01:33:14;100517.44;;;16.51;87.30
51876;BME280;34054;52.100;5.116;2022-09-09T01:33:49;100525.53;;;16.56;87.00
51876;BME280;34054;52.100;5.116;2022-09-09T01:34:22;100528.28;;;16.56;86.87
51876;BME280;34054;52.100;5.116;2022-09-09T01:34:55;100522.91;;;16.51;86.88
51876;BME280;34054;52.100;5.116;2022-09-09T01:35:37;100525.44;;;16.47;86.92
51876;BME280;34054;52.100;5.116;2022-09-09T01:36:19;100527.56;;;16.36;86.85
51876;BME280;34054;52.100;5.116;2022-09-09T01:37:02;100518.81;;;16.20;87.63
51876;BME280;34054;52.100;5.116;2022-09-09T01:37:36;100519.53;;;16.26;87.74
51876;BME280;34054;52.100;5.116;2022-09-09T01:38:08;100517.31;;;16.28;87.83
51876;BME280;34054;52.100;5.116;2022-09-09T01:38:40;100511.31;;;16.26;87.85
51876;BME280;34054;52.100;5.116;2022-09-09T01:39:13;100485.34;;;16.09;87.71
51876;BME280;34054;52.100;5.116;2022-09-09T01:39:45;100506.06;;;16.29;87.75
51876;BME280;34054;52.100;5.116;2022-09-09T01:40:17;100516.50;;;16.41;87.25
51876;BME280;34054;52.100;5.116;2022-09-09T01:40:48;100522.72;;;16.47;87.15
51876;BME280;34054;52.100;5.116;2022-09-09T01:41:24;100516.31;;;16.38;87.24
51876;BME280;34054;52.100;5.116;2022-09-09T01:41:56;100506.97;;;16.39;87.38
51876;BME280;34054;52.100;5.116;2022-09-09T01:42:28;100519.25;;;16.55;87.05
51876;BME280;34054;52.100;5.116;2022-09-09T01:43:01;100519.56;;;16.54;86.85
51876;BME280;34054;52.100;5.116;2022-09-09T01:43:33;100515.00;;;16.49;86.84
51876;BME280;34054;52.100;5.116;2022-09-09T01:44:06;100512.25;;;16.49;87.01
51876;BME280;34054;52.100;5.116;2022-09-09T01:44:40;100511.34;;;16.40;87.01
51876;BME280;34054;52.100;5.116;2022-09-09T01:45:12;100520.16;;;16.37;86.82
51876;BME280;34054;52.100;5.116;2022-09-09T01:45:44;100506.78;;;16.35;86.98
51876;BME280;34054;52.100;5.116;2022-09-09T01:46:21;100500.25;;;16.31;87.01
51876;BME280;34054;52.100;5.116;2022-09-09T01:46:53;100499.34;;;16.36;87.09
51876;BME280;34054;52.100;5.116;2022-09-09T01:47:25;100513.97;;;16.45;86.80
51876;BME280;34054;52.100;5.116;2022-09-09T01:47:58;100504.13;;;16.44;86.98
51876;BME280;34054;52.100;5.116;2022-09-09T01:48:31;100473.97;;;16.30;86.76
51876;BME280;34054;52.100;5.116;2022-09-09T01:49:05;100497.31;;;16.55;86.52
51876;BME280;34054;52.100;5.116;2022-09-09T01:49:39;100496.72;;;16.58;86.50
51876;BME280;34054;52.100;5.116;2022-09-09T01:50:14;100507.38;;;16.60;86.31
51876;BME280;34054;52.100;5.116;2022-09-09T01:50:47;100501.28;;;16.63;86.06
51876;BME280;34054;52.100;5.116;2022-09-09T01:51:20;100512.44;;;16.67;86.12
51876;BME280;34054;52.100;5.116;2022-09-09T01:51:55;100499.75;;;16.57;85.83
51876;BME280;34054;52.100;5.116;2022-09-09T01:52:27;100497.31;;;16.55;85.82
51876;BME280;34054;52.100;5.116;2022-09-09T01:53:01;100487.28;;;16.37;85.90
51876;BME280;34054;52.100;5.116;2022-09-09T01:53:34;100499.78;;;16.29;86.42
51876;BME280;34054;52.100;5.116;2022-09-09T01:54:06;100490.31;;;16.21;86.84
51876;BME280;34054;52.100;5.116;2022-09-09T01:54:39;100494.47;;;16.19;87.16
51876;BME280;34054;52.100;5.116;2022-09-09T01:55:11;100496.72;;;16.16;87.50
51876;BME280;34054;52.100;5.116;2022-09-09T01:55:52;100476.28;;;16.09;87.57
51876;BME280;34054;52.100;5.116;2022-09-09T01:56:42;100502.50;;;16.29;87.56
51876;BME280;34054;52.100;5.116;2022-09-09T01:57:21;100496.38;;;16.18;87.58
51876;BME280;34054;52.100;5.116;2022-09-09T01:58:10;100500.56;;;16.29;87.80
51876;BME280;34054;52.100;5.116;2022-09-09T01:59:04;100505.25;;;16.29;87.52
51876;BME280;34054;52.100;5.116;2022-09-09T01:59:52;100493.88;;;16.36;87.59
51876;BME280;34054;52.100;5.116;2022-09-09T02:00:35;100499.66;;;16.34;87.20
51876;BME280;34054;52.100;5.116;2022-09-09T02:01:21;100498.84;;;16.33;87.00
51876;BME280;34054;52.100;5.116;2022-09-09T02:02:09;100497.84;;;16.29;87.17
51876;BME280;34054;52.100;5.116;2022-09-09T02:02:49;100494.56;;;16.27;87.31
51876;BME280;34054;52.100;5.116;2022-09-09T02:03:31;100498.84;;;16.20;87.42
51876;BME280;34054;52.100;5.116;2022-09-09T02:04:14;100476.72;;;16.16;87.61
51876;BME280;34054;52.100;5.116;2022-09-09T02:04:57;100494.69;;;16.22;87.66
51876;BME280;34054;52.100;5.116;2022-09-09T02:05:40;100504.09;;;16.30;87.62
51876;BME280;34054;52.100;5.116;2022-09-09T02:06:26;100494.50;;;16.32;87.39
51876;BME280;34054;52.100;5.116;2022-09-09T02:07:01;100501.56;;;16.33;87.23
51876;BME280;34054;52.100;5.116;2022-09-09T02:07:38;100497.75;;;16.21;87.56
51876;BME280;34054;52.100;5.116;2022-09-09T02:08:15;100496.19;;;16.14;87.74
51876;BME280;34054;52.100;5.116;2022-09-09T02:08:55;100485.53;;;16.13;87.82
51876;BME280;34054;52.100;5.116;2022-09-09T02:09:30;100462.50;;;16.00;87.59
51876;BME280;34054;52.100;5.116;2022-09-09T02:10:08;100493.97;;;16.16;87.63
51876;BME280;34054;52.100;5.116;2022-09-09T02:10:45;100488.88;;;16.10;87.86
51876;BME280;34054;52.100;5.116;2022-09-09T02:11:25;100467.06;;;15.91;87.98
51876;BME280;34054;52.100;5.116;2022-09-09T02:12:05;100466.53;;;15.89;88.18
51876;BME280;34054;52.100;5.116;2022-09-09T02:12:45;100477.19;;;16.04;88.10
51876;BME280;34054;52.100;5.116;2022-09-09T02:13:21;100486.44;;;16.08;88.14
51876;BME280;34054;52.100;5.116;2022-09-09T02:13:57;100490.44;;;16.16;88.10
51876;BME280;34054;52.100;5.116;2022-09-09T02:14:36;100478.22;;;16.08;88.16
51876;BME280;34054;52.100;5.116;2022-09-09T02:15:19;100483.41;;;16.24;88.11
51876;BME280;34054;52.100;5.116;2022-09-09T02:16:04;100490.63;;;16.20;87.83
51876;BME280;34054;52.100;5.116;2022-09-09T02:16:43;100486.97;;;16.24;87.98
51876;BME280;34054;52.100;5.116;2022-09-09T02:17:23;100491.03;;;16.27;87.94
51876;BME280;34054;52.100;5.116;2022-09-09T02:18:03;100491.94;;;16.36;87.84
51876;BME280;34054;52.100;5.116;2022-09-09T02:18:43;100487.47;;;16.40;87.43
51876;BME280;34054;52.100;5.116;2022-09-09T02:19:23;100492.34;;;16.43;87.31
51876;BME280;34054;52.100;5.116;2022-09-09T02:20:06;100488.50;;;16.44;87.06
51876;BME280;34054;52.100;5.116;2022-09-09T02:20:43;100497.22;;;16.46;87.03
51876;BME280;34054;52.100;5.116;2022-09-09T02:21:17;100481.78;;;16.37;86.60
51876;BME280;34054;52.100;5.116;2022-09-09T02:21:49;100497.13;;;16.38;86.81
51876;BME280;34054;52.100;5.116;2022-09-09T02:22:26;100478.25;;;16.36;86.89
51876;BME280;34054;52.100;5.116;2022-09-09T02:23:01;100463.72;;;16.22;86.88
51876;BME280;34054;52.100;5.116;2022-09-09T02:23:35;100503.00;;;16.45;86.89
51876;BME280;34054;52.100;5.116;2022-09-09T02:24:08;100495.88;;;16.30;86.91
51876;BME280;34054;52.100;5.116;2022-09-09T02:24:42;100505.34;;;16.38;87.11
51876;BME280;34054;52.100;5.116;2022-09-09T02:25:17;100495.50;;;16.37;86.98
51876;BME280;34054;52.100;5.116;2022-09-09T02:25:53;100499.25;;;16.41;86.81
51876;BME280;34054;52.100;5.116;2022-09-09T02:26:28;100491.03;;;16.41;86.55
51876;BME280;34054;52.100;5.116;2022-09-09T02:27:05;100494.19;;;16.34;86.59
51876;BME280;34054;52.100;5.116;2022-09-09T02:27:40;100491.84;;;16.27;86.93
51876;BME280;34054;52.100;5.116;2022-09-09T02:28:14;100493.06;;;16.35;86.91
51876;BME280;34054;52.100;5.116;2022-09-09T02:28:54;100490.22;;;16.40;86.99
51876;BME280;34054;52.100;5.116;2022-09-09T02:29:31;100493.47;;;16.42;86.92
51876;BME280;34054;52.100;5.116;2022-09-09T02:30:07;100486.16;;;16.38;87.06
51876;BME280;34054;52.100;5.116;2022-09-09T02:30:41;100496.53;;;16.41;86.85
51876;BME280;34054;52.100;5.116;2022-09-09T02:31:20;100395.66;;;15.87;86.56
51876;BME280;34054;52.100;5.116;2022-09-09T02:31:57;100494.25;;;16.57;86.53
51876;BME280;34054;52.100;5.116;2022-09-09T02:32:35;100461.69;;;16.41;86.42
51876;BME280;34054;52.100;5.116;2022-09-09T02:33:11;100496.59;;;16.63;86.48
51876;BME280;34054;52.100;5.116;2022-09-09T02:33:49;100488.59;;;16.53;86.09
51876;BME280;34054;52.100;5.116;2022-09-09T02:34:27;100483.81;;;16.59;86.13
51876;BME280;34054;52.100;5.116;2022-09-09T02:35:05;100491.03;;;16.55;85.86
51876;BME280;34054;52.100;5.116;2022-09-09T02:35:41;100490.94;;;16.46;86.10
51876;BME280;34054;52.100;5.116;2022-09-09T02:36:16;100491.25;;;16.44;86.20
51876;BME280;34054;52.100;5.116;2022-09-09T02:36:53;100489.31;;;16.45;86.33
51876;BME280;34054;52.100;5.116;2022-09-09T02:37:30;100456.31;;;16.22;86.06
51876;BME280;34054;52.100;5.116;2022-09-09T02:38:08;100495.69;;;16.40;86.51
51876;BME280;34054;52.100;5.116;2022-09-09T02:38:46;100487.06;;;16.33;86.75
51876;BME280;34054;52.100;5.116;2022-09-09T02:39:23;100497.84;;;16.43;86.55
51876;BME280;34054;52.100;5.116;2022-09-09T02:39:55;100481.47;;;16.38;86.46
51876;BME280;34054;52.100;5.116;2022-09-09T02:40:26;100490.59;;;16.47;86.30
51876;BME280;34054;52.100;5.116;2022-09-09T02:40:58;100494.91;;;16.54;86.26
51876;BME280;34054;52.100;5.116;2022-09-09T02:41:34;100481.28;;;16.48;86.18
51876;BME280;34054;52.100;5.116;2022-09-09T02:42:09;100490.00;;;16.51;86.35
51876;BME280;34054;52.100;5.116;2022-09-09T02:42:42;100473.56;;;16.51;86.24
51876;BME280;34054;52.100;5.116;2022-09-09T02:43:16;100481.19;;;16.54;86.22
51876;BME280;34054;52.100;5.116;2022-09-09T02:43:47;100485.44;;;16.60;85.94
51876;BME280;34054;52.100;5.116;2022-09-09T02:44:19;100481.88;;;16.59;85.90
51876;BME280;34054;52.100;5.116;2022-09-09T02:44:52;100479.16;;;16.45;85.87
51876;BME280;34054;52.100;5.116;2022-09-09T02:45:25;100474.69;;;16.36;85.88
51876;BME280;34054;52.100;5.116;2022-09-09T02:46:14;100474.28;;;16.28;86.18
51876;BME280;34054;52.100;5.116;2022-09-09T02:47:20;100463.72;;;16.22;86.23
51876;BME280;34054;52.100;5.116;2022-09-09T02:48:03;100472.13;;;16.25;86.44
51876;BME280;34054;52.100;5.116;2022-09-09T02:48:49;100446.34;;;16.12;86.38
51876;BME280;34054;52.100;5.116;2022-09-09T02:49:33;100453.88;;;16.07;86.42
51876;BME280;34054;52.100;5.116;2022-09-09T02:50:17;100476.31;;;16.23;86.59
51876;BME280;34054;52.100;5.116;2022-09-09T02:51:07;100446.38;;;15.98;87.14
51876;BME280;34054;52.100;5.116;2022-09-09T02:51:51;100481.97;;;16.12;87.17
51876;BME280;34054;52.100;5.116;2022-09-09T02:52:38;100478.75;;;16.10;87.93
51876;BME280;34054;52.100;5.116;2022-09-09T02:53:26;100477.91;;;16.10;88.32
51876;BME280;34054;52.100;5.116;2022-09-09T02:54:09;100475.81;;;16.07;88.54
51876;BME280;34054;52.100;5.116;2022-09-09T02:54:50;100473.47;;;16.14;88.70
51876;BME280;34054;52.100;5.116;2022-09-09T02:55:37;100475.31;;;16.19;88.53
51876;BME280;34054;52.100;5.116;2022-09-09T02:56:12;100479.94;;;16.18;88.36
51876;BME280;34054;52.100;5.116;2022-09-09T02:56:49;100464.22;;;16.10;88.40
51876;BME280;34054;52.100;5.116;2022-09-09T02:57:28;100473.69;;;16.17;88.30
51876;BME280;34054;52.100;5.116;2022-09-09T02:58:04;100473.88;;;16.21;88.12
51876;BME280;34054;52.100;5.116;2022-09-09T02:58:38;100479.94;;;16.18;88.07
51876;BME280;34054;52.100;5.116;2022-09-09T02:59:12;100476.50;;;16.12;88.32
51876;BME280;34054;52.100;5.116;2022-09-09T02:59:44;100475.38;;;16.13;88.39
51876;BME280;34054;52.100;5.116;2022-09-09T03:00:23;100444.94;;;15.87;88.43
51876;BME280;34054;52.100;5.116;2022-09-09T03:00:57;100472.22;;;15.92;88.80
51876;BME280;34054;52.100;5.116;2022-09-09T03:01:31;100470.81;;;15.95;89.11
51876;BME280;34054;52.100;5.116;2022-09-09T03:02:03;100460.78;;;15.71;89.33
51876;BME280;34054;52.100;5.116;2022-09-09T03:02:36;100478.66;;;15.82;89.51
51876;BME280;34054;52.100;5.116;2022-09-09T03:03:08;100475.19;;;15.77;89.78
51876;BME280;34054;52.100;5.116;2022-09-09T03:03:40;100473.38;;;15.72;89.98
51876;BME280;34054;52.100;5.116;2022-09-09T03:04:13;100450.38;;;15.40;90.35
51876;BME280;34054;52.100;5.116;2022-09-09T03:04:45;100459.59;;;15.44;91.09
51876;BME280;34054;52.100;5.116;2022-09-09T03:05:21;100454.59;;;15.32;91.49
51876;BME280;34054;52.100;5.116;2022-09-09T03:05:54;100471.88;;;15.47;91.66
51876;BME280;34054;52.100;5.116;2022-09-09T03:06:26;100468.25;;;15.51;91.86
51876;BME280;34054;52.100;5.116;2022-09-09T03:06:59;100439.75;;;15.19;91.64
51876;BME280;34054;52.100;5.116;2022-09-09T03:07:31;100469.09;;;15.33;92.17
51876;BME280;34054;52.100;5.116;2022-09-09T03:08:03;100462.16;;;15.21;92.49
51876;BME280;34054;52.100;5.116;2022-09-09T03:08:36;100478.63;;;15.35;92.74
51876;BME280;34054;52.100;5.116;2022-09-09T03:09:07;100471.88;;;15.47;92.75
51876;BME280;34054;52.100;5.116;2022-09-09T03:09:41;100474.31;;;15.48;92.44
51876;BME280;34054;52.100;5.116;2022-09-09T03:10:13;100474.94;;;15.59;92.26
51876;BME280;34054;52.100;5.116;2022-09-09T03:10:44;100468.06;;;15.62;92.03
51876;BME280;34054;52.100;5.116;2022-09-09T03:11:17;100466.88;;;15.68;91.88
51876;BME280;34054;52.100;5.116;2022-09-09T03:11:48;100452.53;;;15.57;91.83
51876;BME280;34054;52.100;5.116;2022-09-09T03:12:20;100460.56;;;15.67;91.52
51876;BME280;34054;52.100;5.116;2022-09-09T03:12:53;100418.75;;;15.34;91.27
51876;BME280;34054;52.100;5.116;2022-09-09T03:13:26;100459.78;;;15.67;91.35
51876;BME280;34054;52.100;5.116;2022-09-09T03:13:57;100465.63;;;15.60;91.27
51876;BME280;34054;52.100;5.116;2022-09-09T03:14:29;100465.41;;;15.57;91.29
51876;BME280;34054;52.100;5.116;2022-09-09T03:15:02;100469.63;;;15.49;91.50
51876;BME280;34054;52.100;5.116;2022-09-09T03:15:34;100466.41;;;15.47;91.82
51876;BME280;34054;52.100;5.116;2022-09-09T03:16:05;100439.00;;;15.33;91.71
51876;BME280;34054;52.100;5.116;2022-09-09T03:16:38;100426.16;;;15.14;92.04
51876;BME280;34054;52.100;5.116;2022-09-09T03:17:09;100464.06;;;15.40;92.10
51876;BME280;34054;52.100;5.116;2022-09-09T03:17:41;100469.75;;;15.44;92.26
51876;BME280;34054;52.100;5.116;2022-09-09T03:18:14;100392.53;;;14.95;92.21
51876;BME280;34054;52.100;5.116;2022-09-09T03:18:45;100464.47;;;15.47;92.08
51876;BME280;34054;52.100;5.116;2022-09-09T03:19:17;100464.06;;;15.40;92.10
51876;BME280;34054;52.100;5.116;2022-09-09T03:19:49;100445.16;;;15.25;92.14
51876;BME280;34054;52.100;5.116;2022-09-09T03:20:23;100462.09;;;15.27;92.34
51876;BME280;34054;52.100;5.116;2022-09-09T03:20:56;100460.53;;;15.20;92.66
51876;BME280;34054;52.100;5.116;2022-09-09T03:21:30;100470.06;;;15.23;93.04
51876;BME280;34054;52.100;5.116;2022-09-09T03:22:03;100466.44;;;15.28;93.15
51876;BME280;34054;52.100;5.116;2022-09-09T03:22:35;100463.91;;;15.31;93.10
51876;BME280;34054;52.100;5.116;2022-09-09T03:23:07;100468.00;;;15.34;92.98
51876;BME280;34054;52.100;5.116;2022-09-09T03:23:39;100468.00;;;15.34;92.98
51876;BME280;34054;52.100;5.116;2022-09-09T03:24:11;100473.03;;;15.27;93.20
51876;BME280;34054;52.100;5.116;2022-09-09T03:24:42;100448.16;;;15.23;93.09